Scottsburg, IN (47170)

8:29 AM EST on February 13, 2016 (GMT -0500)
WR9G - NW Scott County | | Change Station
CLOSE
Current Station
Personal Weather Station
Location: Austin, IN
Elevation: 552 ft
Nearby Weather Stations
Active Advisory: Special Statement

Elev 552 ft 38.74 °N, 85.83 °W | Updated 1 second ago

Partly Cloudy
Partly Cloudy
13.0 °F
Feels Like 6 °F
N
4.0
Wind Variable Wind from North
Gusts 5.0 mph

Today
High -- | Low -- °F
--% Chance of Precip.
Yesterday
High -- | Low -- °F
Precip. -- in
Pressure 30.58 in
Visibility 10.0 miles
Clouds Clear
Windchill 6 °F
Dew Point -0 °F
Humidity 54%
Rainfall 0.00 in
Snow Depth Not available.
7:36 AM 6:18 PM
Waxing Crescent, 30% visible
METAR KLOU 131253Z 34005KT 10SM CLR M09/M18 A3055 RMK AO2 SLP353 T10941183
Pressure 30.58 in
Visibility 10.0 miles
Clouds Clear
Windchill 6 °F
Dew Point -0 °F
Humidity 54%
Rainfall 0.00 in
Snow Depth Not available.
7:36 AM 6:18 PM
Waxing Crescent, 30% visible
METAR KLOU 131253Z 34005KT 10SM CLR M09/M18 A3055 RMK AO2 SLP353 T10941183

10-Day Weather Forecast

Almanac

Astronomy

Feb. 13, 2016 Rise Set
Actual Time
Civil Twilight
Nautical Twilight
Astronomical Twilight
Moon
Length of Visible Light
Length of Day
Tomorrow will be .
, % of the Moon is Illuminated

Today's Extremes

State Highs State Lows

Community

WunderPhotos

Upload Photos

1,892,547 photos uploaded!

WunderBlog® & News

Nearby

Air Quality

  Air Quality AQ Index Pollutant
Not available.

Snow Depth

Station Depth Elevation

Earthquake Activity

City Distance Mag. Time & Date
Minimum magnitude displayed is 2.5.

Coastal Water Temperatures

Place Temperature

Stations

Nearby Weather Stations

Station Location Temp. Windchill Dew Point Humidity Wind Precip. Elev Updated Type
                   

Watches & Warnings

Special Statement
Issued: 3:15 AM CST Feb. 13, 2016 – National Weather Service

... Accumulating snowfall likely Sunday into Sunday night...

A storm system moving from the northern plains into the Great
Lakes region will help induce a swath of snow across the Ohio
Valley Sunday into Sunday night. Accumulations will generally range
from 2 to 4 inches... with locally higher amounts possible across
south central Kentucky. These amounts will likely cover area
roadways... so motorists are urged to use caution... slow down... and
allow extra time to reach their destination.


Kjd


415 am EST Sat Feb 13 2016 /315 am CST Sat Feb 13 2016/

... Accumulating snowfall likely Sunday into Sunday night...

A storm system moving from the northern plains into the Great
Lakes region will help induce a swath of snow across the Ohio
Valley Sunday into Sunday night. Accumulations will generally range
from 2 to 4 inches... with locally higher amounts possible across
south central Kentucky. These amounts will likely cover area
roadways... so motorists are urged to use caution... slow down... and
allow extra time to reach their destination.


Kjd